Pagrindinis puslapis
METAR-TAF:

METAR-TAF

Oro uostai :

Montego Bėjus, Jamaika

platuma: 18-30N, ilguma: 077-55W, Aukštis: 1 m

Dabartinis oras

Ataskaita buvo paskelbta 2 valandos ir 2 minutes, ne 03:00 UTC
Vėjas 8 kt iš Rytų
Temperatūra 28°C
Drėgmė 94%
Slėgis 1015 hPa
Matomumas 10 km arba daugiau
Mažai debesys ne aukštis 2400 ft

METAR: MKJS 060300Z 09008KT 9999 FEW024 28/27 Q1015

Laikas: 00:02 (05:02 UTC)

Prognozė

Ataskaita buvo paskelbta 5 valandos ir 47 minutes, ne 23:15 UTC
Prognozė galioja nuo 06 metu 00 UTC su 06 metu 24 UTC
Vėjas 6 kt iš Pietų/Pietryčių
Matomumas 10 km arba daugiau
Mažai debesys ne aukštis 2000 ft
Tapsmas
nuo 06 metu 13 UTC su 06 metu 15 UTC
Vėjas 18 kt iš Rytų/Šiaurės Rytų
Išsisklaidę debesys ne aukštis 3600 ft
Tikimybė 30% :
Laikinai
nuo 06 metu 18 UTC su 06 metu 22 UTC
Išsisklaidę debesys ne aukštis 2000 ft
Išsisklaidę debesys ne aukštis 2200 ft, Liūtiniai kamuoliniai debesys.
perkūnija

TAF: MKJS 052315Z 0600/0624 15006KT 9999 FEW020 BECMG 0613/0615 06018KT SCT036 PROB30 TEMPO 0618/0622 TS SCT020 SCT022CB

Orai ataskaitas ir orų prognozės (METAR, TAF).

turimą stotys yra geltonos ir raudonos taškus žemėlapyje.

Perkelti pele per norėdami pamatyti stoties vardą.

Tada spustelėkite, norėdami matyti oro stebėjimo ir prognozės.

Norėdami pakeisti žemėlapį: spustelėkite ant žalios mygtukų su juodo kryžiaus žemyn,; žalią mygtuką su brūkšneliu, jei norite nutolinti; arba žalių rodyklių gretimoms žemėlapius.


METAR-TAF: